Wittenberg, South Dakota
Current Conditions -  °F | °C
As of 2:55 AM on Friday 28 Nov 2014 (Local Time) from KYKN Reporting Station
Clear Clear  
Wind Chill:   Ceiling: Unl
Heat Index: 19°   Visibility: 10mi
Dew Point: 16°   Wind: 9mph
Humidity: 86%   Direction: 120°ESE
Pressure: 29.91"   Gusts: NA
Location:  43.2846°N, 97.7352°W
Report Text: KYKN 280855Z AUTO 12008KT 10SM CLR M07/M09 A2991 RMK AO1 57027
Loading
Personal Weather Stations






























Interactive Weather Map New forecast layout! Learn more

10-Day Weather Forecast

Advertisements
Track Severe Weather on mobile